Lake Ariel, Pennsylvania
Current Conditions -  °F | °C
As of 5:24 AM on Tuesday 27 Jan 2015 (Local Time) from KAVP Reporting Station
Light Snow Light Snow  
Wind Chill: 10°   Ceiling: 2100
Heat Index: 19°   Visibility: 1.7mi
Dew Point: 13°   Wind: 7mph
Humidity: 77%   Direction: 350°N
Pressure: 29.74"   Gusts: NA
Location:  41.45°N, 75.38°W
Report Text: KAVP 271024Z AUTO 35006KT 1 3/4SM -SN OVC021 M07/M11 A2974 RMK AO2 P0000 T10721106
Loading
Personal Weather Stations






























Interactive Weather Map New forecast layout! Learn more

10-Day Weather Forecast

Advertisements
Track Severe Weather on mobile